createdAt,value
2017-03-30T00:00:09.843Z,1020.47
2017-03-30T00:01:20.836Z,1020.47
2017-03-30T00:02:31.822Z,1020.45
2017-03-30T00:03:43.013Z,1020.5
2017-03-30T00:04:53.998Z,1020.47
2017-03-30T00:06:04.985Z,1020.49
2017-03-30T00:07:16.182Z,1020.52
2017-03-30T00:08:27.165Z,1020.52
2017-03-30T00:09:38.157Z,1020.52
2017-03-30T00:10:49.354Z,1020.46
2017-03-30T00:12:00.342Z,1020.5
2017-03-30T00:13:11.934Z,1020.49
2017-03-30T00:14:22.916Z,1020.51
2017-03-30T00:15:33.906Z,1020.49
2017-03-30T00:16:44.897Z,1020.48
2017-03-30T00:17:55.933Z,1020.49
2017-03-30T00:19:07.126Z,1020.51
2017-03-30T00:20:18.113Z,1020.5
2017-03-30T00:21:29.100Z,1020.51
2017-03-30T00:22:40.095Z,1020.45
2017-03-30T00:23:51.088Z,1020.41
2017-03-30T00:25:02.093Z,1020.39
2017-03-30T00:26:13.081Z,1020.4
2017-03-30T00:27:24.073Z,1020.39
2017-03-30T00:28:35.068Z,1020.39
2017-03-30T00:29:46.069Z,1020.36
2017-03-30T00:30:57.074Z,1020.4
2017-03-30T00:32:08.266Z,1020.42
2017-03-30T00:33:19.260Z,1020.42
2017-03-30T00:34:30.254Z,1020.43
2017-03-30T00:35:41.441Z,1020.38
2017-03-30T00:36:52.843Z,1020.39
2017-03-30T00:38:04.033Z,1020.37
2017-03-30T00:39:15.275Z,1020.35
2017-03-30T00:40:26.267Z,1020.43
2017-03-30T00:41:37.257Z,1020.39
2017-03-30T00:42:48.272Z,1020.37
2017-03-30T00:43:59.270Z,1020.4
2017-03-30T00:45:10.258Z,1020.38
2017-03-30T00:46:21.450Z,1020.35
2017-03-30T00:47:32.440Z,1020.32
2017-03-30T00:48:43.628Z,1020.35
2017-03-30T00:49:54.669Z,1020.37
2017-03-30T00:51:05.855Z,1020.32
2017-03-30T00:52:17.061Z,1020.31
2017-03-30T00:53:28.042Z,1020.36
2017-03-30T00:54:39.231Z,1020.33
2017-03-30T00:55:50.223Z,1020.36
2017-03-30T00:57:01.210Z,1020.33
2017-03-30T00:58:12.205Z,1020.37
2017-03-30T00:59:23.401Z,1020.33
2017-03-30T01:00:34.447Z,1020.33
2017-03-30T01:01:45.630Z,1020.31
2017-03-30T01:02:56.647Z,1020.35
2017-03-30T01:04:07.846Z,1020.28
2017-03-30T01:05:18.836Z,1020.27
2017-03-30T01:06:29.830Z,1020.31
2017-03-30T01:07:40.815Z,1020.26
2017-03-30T01:08:51.808Z,1020.29
2017-03-30T01:10:02.798Z,1020.27
2017-03-30T01:11:13.793Z,1020.29
2017-03-30T01:12:24.826Z,1020.31
2017-03-30T01:13:35.828Z,1020.3
2017-03-30T01:14:46.812Z,1020.31
2017-03-30T01:15:58.021Z,1020.23
2017-03-30T01:17:09.005Z,1020.26
2017-03-30T01:18:19.989Z,1020.23
2017-03-30T01:19:30.981Z,1020.2
2017-03-30T01:20:41.966Z,1020.22
2017-03-30T01:21:53.413Z,1020.23
2017-03-30T01:23:04.408Z,1020.22
2017-03-30T01:24:15.401Z,1020.2
2017-03-30T01:25:26.388Z,1020.26
2017-03-30T01:26:37.377Z,1020.27
2017-03-30T01:27:48.366Z,1020.27
2017-03-30T01:28:59.368Z,1020.23
2017-03-30T01:30:10.363Z,1020.22
2017-03-30T01:31:21.400Z,1020.24
2017-03-30T01:32:32.438Z,1020.24
2017-03-30T01:33:43.426Z,1020.26
2017-03-30T01:34:54.421Z,1020.21
2017-03-30T01:36:05.410Z,1020.24
2017-03-30T01:37:16.397Z,1020.23
2017-03-30T01:38:27.390Z,1020.23
2017-03-30T01:39:38.368Z,1020.21
2017-03-30T01:40:49.361Z,1020.24
2017-03-30T01:42:00.550Z,1020.22
2017-03-30T01:43:11.948Z,1020.28
2017-03-30T01:44:22.937Z,1020.22
2017-03-30T01:45:33.928Z,1020.28
2017-03-30T01:46:45.115Z,1020.23
2017-03-30T01:47:56.102Z,1020.19
2017-03-30T01:49:07.144Z,1020.14
2017-03-30T01:50:18.136Z,1020.2
2017-03-30T01:51:29.528Z,1020.16
2017-03-30T01:52:40.524Z,1020.17
2017-03-30T01:53:51.512Z,1020.13
2017-03-30T01:55:02.500Z,1020.15
2017-03-30T01:56:13.686Z,1020.14
2017-03-30T01:57:24.689Z,1020.17
2017-03-30T01:58:35.943Z,1020.12
2017-03-30T01:59:47.132Z,1020.16
2017-03-30T02:00:58.118Z,1020.18
2017-03-30T02:02:09.109Z,1020.18
2017-03-30T02:03:20.303Z,1020.21
2017-03-30T02:04:31.306Z,1020.14
2017-03-30T02:05:42.301Z,1020.18
2017-03-30T02:06:53.283Z,1020.22
2017-03-30T02:08:04.479Z,1020.24
2017-03-30T02:09:15.707Z,1020.27
2017-03-30T02:10:26.692Z,1020.28
2017-03-30T02:11:37.673Z,1020.29
2017-03-30T02:12:48.863Z,1020.3
2017-03-30T02:13:59.849Z,1020.3
2017-03-30T02:15:10.864Z,1020.27
2017-03-30T02:16:22.057Z,1020.32
2017-03-30T02:17:33.047Z,1020.33
2017-03-30T02:18:44.244Z,1020.31
2017-03-30T02:19:55.483Z,1020.29
2017-03-30T02:21:06.472Z,1020.32
2017-03-30T02:22:17.666Z,1020.3
2017-03-30T02:23:28.862Z,1020.29
2017-03-30T02:24:39.860Z,1020.3
2017-03-30T02:25:51.058Z,1020.34
2017-03-30T02:27:02.056Z,1020.32
2017-03-30T02:28:13.053Z,1020.35
2017-03-30T02:29:24.045Z,1020.32
2017-03-30T02:30:35.035Z,1020.31
2017-03-30T02:31:46.271Z,1020.32
2017-03-30T02:32:57.462Z,1020.35
2017-03-30T02:34:08.862Z,1020.36
2017-03-30T02:35:20.247Z,1020.32
2017-03-30T02:36:31.243Z,1020.3
2017-03-30T02:37:42.440Z,1020.33
2017-03-30T02:38:53.437Z,1020.33
2017-03-30T02:40:04.452Z,1020.31
2017-03-30T02:41:15.696Z,1020.29
2017-03-30T02:42:26.694Z,1020.34
2017-03-30T02:43:37.678Z,1020.31
2017-03-30T02:44:48.858Z,1020.33
2017-03-30T02:46:00.038Z,1020.32
2017-03-30T02:47:11.239Z,1020.36
2017-03-30T02:48:22.231Z,1020.36
2017-03-30T02:49:33.229Z,1020.36
2017-03-30T02:50:44.227Z,1020.39
2017-03-30T02:51:55.274Z,1020.35
2017-03-30T02:53:06.461Z,1020.36
2017-03-30T02:54:17.448Z,1020.33
2017-03-30T02:55:28.431Z,1020.36
2017-03-30T02:56:39.634Z,1020.38
2017-03-30T02:57:50.679Z,1020.36
2017-03-30T02:59:01.868Z,1020.35
2017-03-30T03:00:12.890Z,1020.38
2017-03-30T03:01:23.881Z,1020.36
2017-03-30T03:02:34.872Z,1020.38
2017-03-30T03:03:45.865Z,1020.38
2017-03-30T03:04:57.067Z,1020.41
2017-03-30T03:06:08.258Z,1020.41
2017-03-30T03:07:19.246Z,1020.38
2017-03-30T03:08:30.242Z,1020.38
2017-03-30T03:09:41.284Z,1020.37
2017-03-30T03:10:52.280Z,1020.38
2017-03-30T03:12:03.275Z,1020.37
2017-03-30T03:13:14.459Z,1020.36
2017-03-30T03:14:25.447Z,1020.35
2017-03-30T03:15:36.436Z,1020.33
2017-03-30T03:16:47.430Z,1020.34
2017-03-30T03:17:58.416Z,1020.36
2017-03-30T03:19:09.849Z,1020.35
2017-03-30T03:20:21.040Z,1020.35
2017-03-30T03:21:32.228Z,1020.35
2017-03-30T03:22:43.215Z,1020.37
2017-03-30T03:23:54.206Z,1020.37
2017-03-30T03:25:05.194Z,1020.34
2017-03-30T03:26:16.178Z,1020.35
2017-03-30T03:27:27.166Z,1020.33
2017-03-30T03:28:38.349Z,1020.4
2017-03-30T03:29:49.397Z,1020.34
2017-03-30T03:31:00.379Z,1020.33
2017-03-30T03:32:11.375Z,1020.38
2017-03-30T03:33:22.373Z,1020.34
2017-03-30T03:34:33.355Z,1020.35
2017-03-30T03:35:44.599Z,1020.35
2017-03-30T03:36:55.588Z,1020.32
2017-03-30T03:38:06.585Z,1020.32
2017-03-30T03:39:17.776Z,1020.32
2017-03-30T03:40:28.758Z,1020.33
2017-03-30T03:41:39.750Z,1020.34
2017-03-30T03:42:50.740Z,1020.33
2017-03-30T03:44:01.741Z,1020.35
2017-03-30T03:45:12.727Z,1020.32
2017-03-30T03:46:23.720Z,1020.34
2017-03-30T03:47:34.967Z,1020.37
2017-03-30T03:48:45.961Z,1020.38
2017-03-30T03:49:56.948Z,1020.39
2017-03-30T03:51:07.969Z,1020.37
2017-03-30T03:52:18.963Z,1020.39
2017-03-30T03:53:29.954Z,1020.35
2017-03-30T03:54:40.947Z,1020.38
2017-03-30T03:55:51.931Z,1020.4
2017-03-30T03:57:02.977Z,1020.34
2017-03-30T03:58:13.973Z,1020.36
2017-03-30T03:59:25.168Z,1020.35
2017-03-30T04:00:36.153Z,1020.37
2017-03-30T04:01:47.149Z,1020.38
2017-03-30T04:02:58.133Z,1020.35
2017-03-30T04:04:09.126Z,1020.35
2017-03-30T04:05:20.120Z,1020.32
2017-03-30T04:06:31.113Z,1020.33
2017-03-30T04:07:42.157Z,1020.33
2017-03-30T04:08:53.550Z,1020.34
2017-03-30T04:10:04.536Z,1020.34
2017-03-30T04:11:15.721Z,1020.35
2017-03-30T04:12:26.918Z,1020.31
2017-03-30T04:13:38.312Z,1020.35
2017-03-30T04:14:49.308Z,1020.31
2017-03-30T04:16:00.303Z,1020.36
2017-03-30T04:17:11.301Z,1020.33
2017-03-30T04:18:22.291Z,1020.33
2017-03-30T04:19:33.287Z,1020.35
2017-03-30T04:20:44.282Z,1020.34
2017-03-30T04:21:55.276Z,1020.29
2017-03-30T04:23:06.271Z,1020.31
2017-03-30T04:24:17.260Z,1020.33
2017-03-30T04:25:28.245Z,1020.3
2017-03-30T04:26:39.239Z,1020.35
2017-03-30T04:27:50.438Z,1020.33
2017-03-30T04:29:01.423Z,1020.32
2017-03-30T04:30:12.661Z,1020.31
2017-03-30T04:31:23.660Z,1020.3
2017-03-30T04:32:34.853Z,1020.26
2017-03-30T04:33:45.837Z,1020.26
2017-03-30T04:34:56.822Z,1020.28
2017-03-30T04:36:07.812Z,1020.23
2017-03-30T04:37:18.807Z,1020.26
2017-03-30T04:38:29.792Z,1020.25
2017-03-30T04:39:41.032Z,1020.25
2017-03-30T04:40:52.015Z,1020.25
2017-03-30T04:42:03.011Z,1020.27
2017-03-30T04:43:14.000Z,1020.26
2017-03-30T04:44:24.987Z,1020.28
2017-03-30T04:45:35.973Z,1020.25
2017-03-30T04:46:46.959Z,1020.27
2017-03-30T04:47:57.950Z,1020.27
2017-03-30T04:49:08.936Z,1020.26
2017-03-30T04:50:19.969Z,1020.21
2017-03-30T04:51:30.955Z,1020.24
2017-03-30T04:52:41.943Z,1020.24
2017-03-30T04:53:52.927Z,1020.28
2017-03-30T04:55:03.912Z,1020.23
2017-03-30T04:56:14.898Z,1020.22
2017-03-30T04:57:25.891Z,1020.21
2017-03-30T04:58:37.080Z,1020.23
2017-03-30T04:59:48.077Z,1020.21
2017-03-30T05:00:59.290Z,1020.19
2017-03-30T05:02:10.281Z,1020.2
2017-03-30T05:03:21.276Z,1020.19
2017-03-30T05:04:32.265Z,1020.21
2017-03-30T05:05:43.252Z,1020.19
2017-03-30T05:06:54.242Z,1020.16
2017-03-30T05:08:05.278Z,1020.19
2017-03-30T05:09:16.275Z,1020.22
2017-03-30T05:10:27.265Z,1020.16
2017-03-30T05:11:38.460Z,1020.17
2017-03-30T05:12:49.447Z,1020.16
2017-03-30T05:14:00.435Z,1020.19
2017-03-30T05:15:11.619Z,1020.14
2017-03-30T05:16:22.610Z,1020.16
2017-03-30T05:17:33.847Z,1020.16
2017-03-30T05:18:45.037Z,1020.15
2017-03-30T05:19:56.054Z,1020.17
2017-03-30T05:21:07.039Z,1020.16
2017-03-30T05:22:18.084Z,1020.17
2017-03-30T05:23:29.131Z,1020.17
2017-03-30T05:24:40.317Z,1020.11
2017-03-30T05:25:51.518Z,1020.13
2017-03-30T05:27:02.718Z,1020.14
2017-03-30T05:28:13.759Z,1020.12
2017-03-30T05:29:24.754Z,1020.15
2017-03-30T05:30:35.951Z,1020.14
2017-03-30T05:31:46.954Z,1020.19
2017-03-30T05:32:57.944Z,1020.14
2017-03-30T05:34:08.938Z,1020.19
2017-03-30T05:35:19.929Z,1020.21
2017-03-30T05:36:31.118Z,1020.17
2017-03-30T05:37:42.114Z,1020.17
2017-03-30T05:38:53.106Z,1020.16
2017-03-30T05:40:04.101Z,1020.16
2017-03-30T05:41:15.086Z,1020.19
2017-03-30T05:42:26.074Z,1020.18
2017-03-30T05:43:37.060Z,1020.17
2017-03-30T05:44:48.049Z,1020.2
2017-03-30T05:45:59.088Z,1020.18
2017-03-30T05:47:10.288Z,1020.21
2017-03-30T05:48:21.281Z,1020.19
2017-03-30T05:49:32.268Z,1020.21
2017-03-30T05:50:43.469Z,1020.18
2017-03-30T05:51:54.665Z,1020.2
2017-03-30T05:53:05.664Z,1020.21
2017-03-30T05:54:16.651Z,1020.28
2017-03-30T05:55:27.895Z,1020.3
2017-03-30T05:56:38.900Z,1020.28
2017-03-30T05:57:49.887Z,1020.25
2017-03-30T05:59:00.879Z,1020.31
2017-03-30T06:00:11.870Z,1020.31
2017-03-30T06:01:22.859Z,1020.32
2017-03-30T06:02:33.841Z,1020.31
2017-03-30T06:03:44.841Z,1020.31
2017-03-30T06:04:55.832Z,1020.37
2017-03-30T06:06:07.091Z,1020.34
2017-03-30T06:07:18.087Z,1020.35
2017-03-30T06:08:29.079Z,1020.38
2017-03-30T06:09:40.068Z,1020.31
2017-03-30T06:10:51.052Z,1020.38
2017-03-30T06:12:02.042Z,1020.36
2017-03-30T06:13:13.033Z,1020.36
2017-03-30T06:14:24.224Z,1020.38
2017-03-30T06:15:35.413Z,1020.35
2017-03-30T06:16:46.411Z,1020.42
2017-03-30T06:17:57.615Z,1020.38
2017-03-30T06:19:08.613Z,1020.39
2017-03-30T06:20:19.608Z,1020.37
2017-03-30T06:21:30.806Z,1020.41
2017-03-30T06:22:41.841Z,1020.39
2017-03-30T06:23:52.833Z,1020.44
2017-03-30T06:25:03.828Z,1020.47
2017-03-30T06:26:14.825Z,1020.46
2017-03-30T06:27:25.823Z,1020.47
2017-03-30T06:28:37.221Z,1020.49
2017-03-30T06:29:48.207Z,1020.43
2017-03-30T06:30:59.199Z,1020.45
2017-03-30T06:32:10.252Z,1020.44
2017-03-30T06:33:21.451Z,1020.46
2017-03-30T06:34:32.443Z,1020.42
2017-03-30T06:35:43.450Z,1020.45
2017-03-30T06:36:54.450Z,1020.46
2017-03-30T06:38:05.446Z,1020.45
2017-03-30T06:39:16.437Z,1020.44
2017-03-30T06:40:27.451Z,1020.48
2017-03-30T06:41:38.448Z,1020.49
2017-03-30T06:42:49.686Z,1020.48
2017-03-30T06:44:00.670Z,1020.5
2017-03-30T06:45:11.667Z,1020.49
2017-03-30T06:46:22.656Z,1020.56
2017-03-30T06:47:33.653Z,1020.54
2017-03-30T06:48:44.646Z,1020.52
2017-03-30T06:49:55.636Z,1020.55
2017-03-30T06:51:06.632Z,1020.53
2017-03-30T06:52:17.832Z,1020.57
2017-03-30T06:53:28.832Z,1020.53
2017-03-30T06:54:39.822Z,1020.58
2017-03-30T06:55:50.807Z,1020.6
2017-03-30T06:57:01.799Z,1020.64
2017-03-30T06:58:12.990Z,1020.65
2017-03-30T06:59:24.238Z,1020.7
2017-03-30T07:00:35.239Z,1020.68
2017-03-30T07:01:46.240Z,1020.69
2017-03-30T07:02:57.235Z,1020.67
2017-03-30T07:04:08.235Z,1020.67
2017-03-30T07:05:19.225Z,1020.68
2017-03-30T07:06:30.213Z,1020.56
2017-03-30T07:07:41.213Z,1020.6
2017-03-30T07:08:52.452Z,1020.62
2017-03-30T07:10:03.445Z,1020.6
2017-03-30T07:11:14.644Z,1020.64
2017-03-30T07:12:25.675Z,1020.59
2017-03-30T07:13:36.669Z,1020.6
2017-03-30T07:14:47.659Z,1020.64
2017-03-30T07:15:58.644Z,1020.7
2017-03-30T07:17:09.848Z,1020.69
2017-03-30T07:18:20.842Z,1020.69
2017-03-30T07:19:31.882Z,1020.75
2017-03-30T07:20:42.876Z,1020.86
2017-03-30T07:21:53.880Z,1022.17
2017-03-30T07:23:04.881Z,1022.05
2017-03-30T07:24:15.880Z,1021.45
2017-03-30T07:25:26.865Z,1021.58
2017-03-30T07:26:37.872Z,1021.35
2017-03-30T07:27:49.073Z,1021.08
2017-03-30T07:29:00.069Z,1021.06
2017-03-30T07:30:11.122Z,1020.91
2017-03-30T07:31:22.331Z,1020.88
2017-03-30T07:32:33.330Z,1021.21
2017-03-30T07:33:44.333Z,1021.62
2017-03-30T07:34:55.335Z,1021.85
2017-03-30T07:36:06.537Z,1021.7
2017-03-30T07:37:17.736Z,1020.95
2017-03-30T07:38:28.736Z,1020.71
2017-03-30T07:39:39.737Z,1020.75
2017-03-30T07:40:50.741Z,1020.9
2017-03-30T07:42:01.743Z,1021.71
2017-03-30T07:43:12.945Z,1020.83
2017-03-30T07:44:23.943Z,1020.79
2017-03-30T07:45:34.943Z,1020.79
2017-03-30T07:46:45.943Z,1020.62
2017-03-30T07:47:56.976Z,1020.67
2017-03-30T07:49:07.971Z,1020.66
2017-03-30T07:50:18.967Z,1020.68
2017-03-30T07:51:29.959Z,1020.68
2017-03-30T07:52:40.958Z,1020.62
2017-03-30T07:53:51.956Z,1020.68
2017-03-30T07:55:02.943Z,1020.63
2017-03-30T07:56:13.944Z,1020.63
2017-03-30T07:57:24.954Z,1020.63
2017-03-30T07:58:35.940Z,1020.65
2017-03-30T07:59:46.937Z,1020.7
2017-03-30T08:00:58.185Z,1020.74
2017-03-30T08:02:09.178Z,1020.61
2017-03-30T08:03:20.162Z,1020.65
2017-03-30T08:04:31.157Z,1020.67
2017-03-30T08:05:42.149Z,1020.66
2017-03-30T08:06:53.146Z,1020.69
2017-03-30T08:08:04.141Z,1020.72
2017-03-30T08:09:15.140Z,1020.8
2017-03-30T08:10:26.142Z,1020.83
2017-03-30T08:11:37.341Z,1020.82
2017-03-30T08:12:48.337Z,1020.81
2017-03-30T08:13:59.359Z,1020.77
2017-03-30T08:15:10.549Z,1020.75
2017-03-30T08:16:21.749Z,1020.73
2017-03-30T08:17:32.943Z,1020.71
2017-03-30T08:18:43.931Z,1020.77
2017-03-30T08:19:54.968Z,1021.02
2017-03-30T08:21:05.966Z,1020.93
2017-03-30T08:22:16.964Z,1020.91
2017-03-30T08:23:28.165Z,1020.89
2017-03-30T08:24:39.185Z,1020.97
2017-03-30T08:25:50.193Z,1020.89
2017-03-30T08:27:01.195Z,1020.94
2017-03-30T08:28:12.193Z,1020.86
2017-03-30T08:29:23.210Z,1020.85
2017-03-30T08:30:34.425Z,1020.84
2017-03-30T08:31:45.429Z,1020.84
2017-03-30T08:32:56.424Z,1020.97
2017-03-30T08:34:07.631Z,1020.93
2017-03-30T08:35:18.637Z,1020.92
2017-03-30T08:36:29.650Z,1020.91
2017-03-30T08:37:40.652Z,1020.9
2017-03-30T08:38:51.666Z,1020.86
2017-03-30T08:40:02.666Z,1020.91
2017-03-30T08:41:13.670Z,1020.89
2017-03-30T08:42:24.725Z,1020.93
2017-03-30T08:43:35.742Z,1020.86
2017-03-30T08:44:46.755Z,1020.82
2017-03-30T08:45:57.751Z,1020.92
2017-03-30T08:47:08.750Z,1020.89
2017-03-30T08:48:19.971Z,1020.85
2017-03-30T08:49:31.183Z,1020.81
2017-03-30T08:50:42.191Z,1020.8
2017-03-30T08:51:53.197Z,1020.87
2017-03-30T08:53:04.217Z,1021.01
2017-03-30T08:54:15.221Z,1021.11
2017-03-30T08:55:26.234Z,1021.05
2017-03-30T08:56:37.246Z,1020.96
2017-03-30T08:57:48.252Z,1020.95
2017-03-30T08:58:59.662Z,1020.91
2017-03-30T09:00:10.671Z,1020.99
2017-03-30T09:01:21.686Z,1020.88
2017-03-30T09:02:32.693Z,1020.9
2017-03-30T09:03:43.704Z,1020.98
2017-03-30T09:04:54.714Z,1020.98
2017-03-30T09:06:05.722Z,1020.93
2017-03-30T09:07:16.719Z,1020.91
2017-03-30T09:08:27.731Z,1020.84
2017-03-30T09:09:38.726Z,1020.83
2017-03-30T09:10:49.731Z,1020.89
2017-03-30T09:12:00.734Z,1020.93
2017-03-30T09:13:11.743Z,1021.02
2017-03-30T09:14:22.752Z,1021.09
2017-03-30T09:15:33.754Z,1021.01
2017-03-30T09:16:44.767Z,1021.16
2017-03-30T09:17:55.776Z,1020.95
2017-03-30T09:19:07.029Z,1021.02
2017-03-30T09:20:18.044Z,1021.07
2017-03-30T09:21:29.046Z,1021.08
2017-03-30T09:22:40.061Z,1021.19
2017-03-30T09:23:51.071Z,1021.12
2017-03-30T09:25:02.280Z,1020.98
2017-03-30T09:26:13.490Z,1020.96
2017-03-30T09:27:24.703Z,1020.99
2017-03-30T09:28:36.373Z,1021.17
2017-03-30T09:29:47.392Z,1021.12
2017-03-30T09:30:58.399Z,1021
2017-03-30T09:32:09.617Z,1020.93
2017-03-30T09:33:20.633Z,1020.93
2017-03-30T09:34:31.643Z,1021.05
2017-03-30T09:35:42.855Z,1021.28
2017-03-30T09:36:54.063Z,1020.9
2017-03-30T09:38:05.269Z,1020.98
2017-03-30T09:39:16.269Z,1021.28
2017-03-30T09:40:27.690Z,1020.87
2017-03-30T09:41:38.898Z,1020.93
2017-03-30T09:42:50.101Z,1020.77
2017-03-30T09:44:01.304Z,1020.83
2017-03-30T09:45:12.312Z,1020.96
2017-03-30T09:46:23.316Z,1021.21
2017-03-30T09:47:34.328Z,1020.92
2017-03-30T09:48:45.331Z,1020.93
2017-03-30T09:49:56.336Z,1020.85
2017-03-30T09:51:07.337Z,1020.88
2017-03-30T09:52:18.372Z,1020.79
2017-03-30T09:53:29.379Z,1020.66
2017-03-30T09:54:40.383Z,1020.63
2017-03-30T09:55:51.384Z,1020.66
2017-03-30T09:57:02.380Z,1020.62
2017-03-30T09:58:13.410Z,1020.72
2017-03-30T09:59:24.658Z,1020.84
2017-03-30T10:00:35.662Z,1020.79
2017-03-30T10:01:46.869Z,1020.67
2017-03-30T10:02:57.867Z,1020.69
2017-03-30T10:04:08.879Z,1020.74
2017-03-30T10:05:19.881Z,1020.91
2017-03-30T10:06:30.891Z,1020.87
2017-03-30T10:07:41.898Z,1020.89
2017-03-30T10:08:52.906Z,1020.92
2017-03-30T10:10:03.931Z,1020.66
2017-03-30T10:11:14.936Z,1020.63
2017-03-30T10:12:25.939Z,1021.09
2017-03-30T10:13:36.936Z,1021.12
2017-03-30T10:14:47.944Z,1021.2
2017-03-30T10:15:58.948Z,1022.07
2017-03-30T10:17:09.958Z,1022
2017-03-30T10:18:21.170Z,1024.1
2017-03-30T10:19:32.179Z,1024.93
2017-03-30T10:20:43.198Z,1024.63
2017-03-30T10:21:54.196Z,1024.62
2017-03-30T10:23:05.209Z,1024.16
2017-03-30T10:24:16.425Z,1023.98
2017-03-30T10:25:27.432Z,1024.09
2017-03-30T10:26:38.452Z,1023.74
2017-03-30T10:27:49.452Z,1023.13
2017-03-30T10:29:00.460Z,1022.5
2017-03-30T10:30:11.475Z,1021.97
2017-03-30T10:31:22.734Z,1021.47
2017-03-30T10:32:33.750Z,1021.05
2017-03-30T10:33:44.757Z,1020.72
2017-03-30T10:34:55.761Z,1020.6
2017-03-30T10:36:06.769Z,1020.53
2017-03-30T10:37:17.789Z,1020.49
2017-03-30T10:38:28.815Z,1020.47
2017-03-30T10:39:39.822Z,1020.46
2017-03-30T10:40:51.078Z,1020.4
2017-03-30T10:42:02.105Z,1020.37
2017-03-30T10:43:13.114Z,1020.34
2017-03-30T10:44:24.138Z,1020.3
2017-03-30T10:45:35.154Z,1020.3
2017-03-30T10:46:46.167Z,1020.25
2017-03-30T10:47:57.380Z,1020.28
2017-03-30T10:49:08.409Z,1020.24
2017-03-30T10:50:19.416Z,1020.26
2017-03-30T10:51:30.420Z,1020.24
2017-03-30T10:52:41.431Z,1020.17
2017-03-30T10:53:52.633Z,1020.17
2017-03-30T10:55:03.633Z,1020.27
2017-03-30T10:56:14.642Z,1020.23
2017-03-30T10:57:25.651Z,1020.2
2017-03-30T10:58:36.660Z,1020.21
2017-03-30T10:59:47.669Z,1020.17
2017-03-30T11:00:58.879Z,1020.21
2017-03-30T11:02:09.889Z,1020.24
2017-03-30T11:03:20.892Z,1020.22
2017-03-30T11:04:31.908Z,1020.22
2017-03-30T11:05:43.159Z,1020.22
2017-03-30T11:06:54.168Z,1020.21
2017-03-30T11:08:05.174Z,1020.17
2017-03-30T11:09:16.204Z,1019.99
2017-03-30T11:10:27.622Z,1020.02
2017-03-30T11:11:38.633Z,1020.05
2017-03-30T11:12:49.900Z,1020.03
2017-03-30T11:14:00.909Z,1020.07
2017-03-30T11:15:12.120Z,1020.05
2017-03-30T11:16:23.133Z,1020.04
2017-03-30T11:17:34.148Z,1020.06
2017-03-30T11:18:45.371Z,1020.07
2017-03-30T11:19:56.393Z,1020.04
2017-03-30T11:21:07.401Z,1019.87
2017-03-30T11:22:18.660Z,1020.01
2017-03-30T11:23:29.666Z,1020.06
2017-03-30T11:24:40.680Z,1020.01
2017-03-30T11:25:51.889Z,1020
2017-03-30T11:27:02.902Z,1019.96
2017-03-30T11:28:13.908Z,1019.95
2017-03-30T11:29:24.921Z,1019.92
2017-03-30T11:30:35.932Z,1019.88
2017-03-30T11:31:46.940Z,1019.95
2017-03-30T11:32:57.944Z,1019.97
2017-03-30T11:34:08.950Z,1019.93
2017-03-30T11:35:19.959Z,1019.97
2017-03-30T11:36:30.958Z,1019.91
2017-03-30T11:37:41.967Z,1019.91
2017-03-30T11:38:52.987Z,1019.92
2017-03-30T11:40:04.208Z,1019.89
2017-03-30T11:41:15.210Z,1019.81
2017-03-30T11:42:26.218Z,1019.85
2017-03-30T11:43:37.229Z,1019.7
2017-03-30T11:44:48.242Z,1019.73
2017-03-30T11:45:59.264Z,1019.77
2017-03-30T11:47:10.286Z,1019.79
2017-03-30T11:48:21.316Z,1019.76
2017-03-30T11:49:32.528Z,1019.72
2017-03-30T11:50:43.531Z,1019.72
2017-03-30T11:51:54.537Z,1019.72
2017-03-30T11:53:05.798Z,1019.83
2017-03-30T11:54:16.814Z,1019.83
2017-03-30T11:55:27.820Z,1019.76
2017-03-30T11:56:38.825Z,1019.63
2017-03-30T11:57:49.832Z,1019.61
2017-03-30T11:59:01.050Z,1019.59
2017-03-30T12:00:12.063Z,1019.65
2017-03-30T12:01:23.072Z,1019.74
2017-03-30T12:02:34.071Z,1019.8
2017-03-30T12:03:45.077Z,1019.72
2017-03-30T12:04:56.284Z,1019.71
2017-03-30T12:06:07.292Z,1019.7
2017-03-30T12:07:18.508Z,1019.74
2017-03-30T12:08:29.718Z,1019.65
2017-03-30T12:09:40.725Z,1019.73
2017-03-30T12:10:51.729Z,1019.63
2017-03-30T12:12:02.737Z,1020.2
2017-03-30T12:13:13.739Z,1020.21
2017-03-30T12:14:24.752Z,1019.99
2017-03-30T12:15:35.766Z,1019.9
2017-03-30T12:16:46.778Z,1019.83
2017-03-30T12:17:57.785Z,1019.76
2017-03-30T12:19:08.794Z,1019.75
2017-03-30T12:20:19.805Z,1019.66
2017-03-30T12:21:31.012Z,1019.56
2017-03-30T12:22:42.226Z,1019.43
2017-03-30T12:23:53.235Z,1019.42
2017-03-30T12:25:04.239Z,1019.48
2017-03-30T12:26:15.257Z,1019.27
2017-03-30T12:27:26.264Z,1019.39
2017-03-30T12:28:37.268Z,1019.46
2017-03-30T12:29:48.283Z,1019.49
2017-03-30T12:30:59.299Z,1019.47
2017-03-30T12:32:10.302Z,1019.41
2017-03-30T12:33:21.306Z,1019.35
2017-03-30T12:34:32.323Z,1019.31
2017-03-30T12:35:43.378Z,1019.25
2017-03-30T12:36:54.387Z,1019.23
2017-03-30T12:38:05.406Z,1019.21
2017-03-30T12:39:16.411Z,1019.18
2017-03-30T12:40:27.614Z,1019.23
2017-03-30T12:41:38.620Z,1019.17
2017-03-30T12:42:49.632Z,1019.18
2017-03-30T12:44:00.841Z,1019.14
2017-03-30T12:45:11.849Z,1019.07
2017-03-30T12:46:22.859Z,1019.01
2017-03-30T12:47:33.863Z,1019.09
2017-03-30T12:48:44.871Z,1019.11
2017-03-30T12:49:56.090Z,1019.11
2017-03-30T12:51:07.347Z,1019.01
2017-03-30T12:52:18.356Z,1018.99
2017-03-30T12:53:29.359Z,1019
2017-03-30T12:54:40.362Z,1019.05
2017-03-30T12:55:51.364Z,1019.03
2017-03-30T12:57:02.366Z,1019.04
2017-03-30T12:58:13.375Z,1018.97
2017-03-30T12:59:24.381Z,1018.98
2017-03-30T13:00:35.445Z,1018.96
2017-03-30T13:01:46.454Z,1018.92
2017-03-30T13:02:57.457Z,1018.95
2017-03-30T13:04:08.465Z,1018.93
2017-03-30T13:05:19.669Z,1018.95
2017-03-30T13:06:30.928Z,1018.94
2017-03-30T13:07:42.128Z,1018.91
2017-03-30T13:08:53.126Z,1018.91
2017-03-30T13:10:04.133Z,1018.9
2017-03-30T13:11:15.142Z,1018.91
2017-03-30T13:12:26.345Z,1018.86
2017-03-30T13:13:37.345Z,1018.82
2017-03-30T13:14:48.341Z,1018.8
2017-03-30T13:15:59.355Z,1018.79
2017-03-30T13:17:10.358Z,1018.76
2017-03-30T13:18:21.364Z,1018.76
2017-03-30T13:19:32.371Z,1018.76
2017-03-30T13:20:43.574Z,1018.78
2017-03-30T13:21:54.572Z,1018.77
2017-03-30T13:23:05.579Z,1018.71
2017-03-30T13:24:16.586Z,1018.73
2017-03-30T13:25:27.615Z,1018.69
2017-03-30T13:26:38.615Z,1018.68
2017-03-30T13:27:49.615Z,1018.74
2017-03-30T13:29:00.619Z,1018.7
2017-03-30T13:30:11.625Z,1018.73
2017-03-30T13:31:22.638Z,1018.68
2017-03-30T13:32:33.633Z,1018.67
2017-03-30T13:33:44.646Z,1018.58
2017-03-30T13:34:55.660Z,1018.57
2017-03-30T13:36:06.673Z,1018.65
2017-03-30T13:37:17.684Z,1018.62
2017-03-30T13:38:28.690Z,1018.6
2017-03-30T13:39:39.891Z,1018.6
2017-03-30T13:40:50.902Z,1018.61
2017-03-30T13:42:02.103Z,1018.61
2017-03-30T13:43:13.107Z,1018.69
2017-03-30T13:44:24.113Z,1018.72
2017-03-30T13:45:35.114Z,1018.68
2017-03-30T13:46:46.120Z,1018.7
2017-03-30T13:47:57.115Z,1018.61
2017-03-30T13:49:08.125Z,1018.63
2017-03-30T13:50:19.130Z,1018.66
2017-03-30T13:51:30.389Z,1018.62
2017-03-30T13:52:41.594Z,1018.59
2017-03-30T13:53:52.598Z,1018.55
2017-03-30T13:55:03.594Z,1018.51
2017-03-30T13:56:14.592Z,1018.51
2017-03-30T13:57:25.994Z,1018.55
2017-03-30T13:58:36.996Z,1018.5
2017-03-30T13:59:47.992Z,1018.53
2017-03-30T14:00:58.991Z,1018.54
2017-03-30T14:02:10.029Z,1018.51
2017-03-30T14:03:21.026Z,1018.45
2017-03-30T14:04:32.028Z,1018.46
2017-03-30T14:05:43.228Z,1018.44
2017-03-30T14:06:54.638Z,1018.44
2017-03-30T14:08:05.677Z,1018.43
2017-03-30T14:09:16.675Z,1018.43
2017-03-30T14:10:27.676Z,1018.44
2017-03-30T14:11:38.683Z,1018.44
2017-03-30T14:12:49.688Z,1018.42
2017-03-30T14:14:00.883Z,1018.41
2017-03-30T14:15:12.082Z,1018.36
2017-03-30T14:16:23.282Z,1018.32
2017-03-30T14:17:34.283Z,1018.3
2017-03-30T14:18:45.488Z,1018.3
2017-03-30T14:19:56.700Z,1018.32
2017-03-30T14:21:07.707Z,1018.27